createdAt,value
2017-08-20T00:01:00.158Z,64.60
2017-08-20T00:10:23.888Z,64.80
2017-08-20T00:10:56.402Z,64.50
2017-08-20T00:11:28.911Z,64.70
2017-08-20T00:12:30.942Z,64.70
2017-08-20T00:13:03.491Z,64.70
2017-08-20T00:13:35.990Z,65.00
2017-08-20T00:14:08.511Z,64.80
2017-08-20T00:14:48.943Z,64.70
2017-08-20T00:15:21.613Z,64.70
2017-08-20T00:15:54.245Z,65.00
2017-08-20T00:20:45.783Z,65.00
2017-08-20T00:21:18.324Z,65.20
2017-08-20T00:21:50.829Z,65.40
2017-08-20T00:22:23.354Z,65.50
2017-08-20T00:22:55.850Z,65.50
2017-08-20T00:23:28.379Z,65.40
2017-08-20T00:26:53.891Z,65.70
2017-08-20T00:27:26.993Z,66.00
2017-08-20T00:27:59.514Z,66.00
2017-08-20T00:28:32.014Z,65.80
2017-08-20T00:29:04.525Z,65.70
2017-08-20T00:29:37.054Z,66.00
2017-08-20T00:30:09.570Z,66.20
2017-08-20T00:30:42.104Z,65.90
2017-08-20T00:31:14.608Z,66.10
2017-08-20T00:31:47.451Z,66.20
2017-08-20T00:32:20.846Z,65.90
2017-08-20T00:32:53.349Z,65.90
2017-08-20T00:33:26.567Z,66.20
2017-08-20T00:33:59.060Z,66.20
2017-08-20T00:34:31.553Z,66.40
2017-08-20T00:35:04.074Z,66.30
2017-08-20T00:35:36.573Z,66.20
2017-08-20T00:36:09.070Z,66.20
2017-08-20T00:38:42.708Z,66.50
2017-08-20T00:39:15.283Z,66.50
2017-08-20T00:39:47.858Z,66.30
2017-08-20T00:40:20.415Z,66.10
2017-08-20T00:40:52.923Z,66.10
2017-08-20T00:53:14.623Z,66.30
2017-08-20T00:53:47.124Z,66.60
2017-08-20T00:54:19.642Z,66.40
2017-08-20T00:54:52.152Z,66.90
2017-08-20T00:55:24.654Z,67.70
2017-08-20T00:55:57.185Z,66.80
2017-08-20T00:56:29.686Z,66.60
2017-08-20T00:57:02.189Z,66.60
2017-08-20T00:57:34.717Z,66.70
2017-08-20T00:58:07.227Z,66.70
2017-08-20T00:58:39.755Z,66.40
2017-08-20T00:59:12.269Z,66.30
2017-08-20T00:59:44.776Z,66.50
2017-08-20T01:00:17.279Z,66.60
2017-08-20T01:00:49.792Z,66.70
2017-08-20T01:01:22.289Z,67.00
2017-08-20T01:01:54.817Z,66.90
2017-08-20T01:02:27.341Z,67.10
2017-08-20T01:02:59.838Z,67.30
2017-08-20T01:03:33.071Z,66.70
2017-08-20T01:04:05.597Z,66.70
2017-08-20T01:04:38.102Z,67.00
2017-08-20T01:05:10.613Z,66.90
2017-08-20T01:05:43.145Z,66.40
2017-08-20T01:06:15.658Z,66.50
2017-08-20T01:06:48.154Z,66.70
2017-08-20T01:07:20.704Z,66.70
2017-08-20T17:20:16.317Z,71.50
2017-08-20T17:23:42.952Z,72.90
2017-08-20T17:24:15.470Z,72.90
2017-08-20T17:24:47.997Z,72.50
2017-08-20T17:30:11.511Z,72.80
2017-08-20T17:30:44.051Z,72.80
2017-08-20T17:31:52.644Z,71.50
2017-08-20T17:32:25.193Z,71.50
2017-08-20T17:32:58.465Z,71.90
2017-08-20T17:36:34.674Z,72.70
2017-08-20T17:42:06.919Z,72.40
2017-08-20T17:42:39.527Z,72.70
2017-08-20T17:50:06.286Z,70.40
2017-08-20T17:50:39.597Z,69.80
2017-08-20T18:06:49.648Z,67.00
2017-08-20T18:07:22.169Z,68.40
2017-08-20T18:07:54.690Z,67.40
2017-08-20T18:08:27.218Z,67.00
2017-08-20T18:14:00.351Z,69.80
2017-08-20T18:14:33.031Z,69.20
2017-08-20T18:15:05.644Z,68.20
2017-08-20T18:15:38.158Z,67.90
2017-08-20T18:16:10.740Z,67.70
2017-08-20T18:16:43.464Z,66.70
2017-08-20T18:17:16.127Z,67.40
2017-08-20T18:17:48.710Z,68.00
2017-08-20T18:18:21.224Z,68.20
2017-08-20T18:18:53.747Z,68.30
2017-08-20T18:19:26.324Z,68.20
2017-08-20T18:20:01.083Z,67.70
2017-08-20T21:08:58.391Z,75.60
2017-08-20T21:09:30.941Z,74.30
2017-08-20T21:10:03.474Z,74.80
2017-08-20T21:10:36.762Z,74.50
2017-08-20T22:00:19.043Z,76.00
2017-08-20T22:00:51.544Z,76.30
2017-08-20T22:01:24.067Z,75.50
2017-08-20T22:04:50.926Z,75.20
2017-08-20T22:05:31.510Z,75.20
2017-08-20T22:06:04.032Z,75.00
2017-08-20T22:06:36.527Z,74.80
2017-08-20T22:07:09.044Z,74.90
2017-08-20T22:08:23.865Z,75.00
2017-08-20T22:08:56.588Z,74.90
2017-08-20T22:09:29.128Z,75.30
2017-08-20T22:10:01.644Z,75.20
2017-08-20T22:10:35.135Z,75.20
2017-08-20T22:11:07.727Z,75.60
2017-08-20T22:11:40.356Z,75.60
2017-08-20T22:12:12.901Z,75.90
2017-08-20T22:12:45.422Z,75.50
2017-08-20T22:13:17.952Z,75.30
2017-08-20T22:14:39.809Z,75.50
2017-08-20T22:15:13.393Z,75.10
2017-08-20T22:38:31.185Z,75.60
2017-08-20T22:39:03.726Z,74.90
2017-08-20T22:39:37.161Z,74.80
2017-08-20T22:47:13.393Z,74.90
2017-08-20T22:47:46.178Z,74.90
2017-08-20T22:48:19.375Z,75.40
2017-08-20T22:48:54.182Z,75.60
2017-08-20T22:49:27.428Z,75.60
2017-08-20T22:50:00.469Z,75.70
2017-08-20T22:51:28.594Z,76.10
2017-08-20T22:52:01.520Z,76.20
2017-08-20T22:52:34.573Z,76.20
2017-08-20T22:53:07.423Z,75.50
2017-08-20T22:53:43.582Z,75.80
2017-08-20T22:54:17.060Z,75.90
2017-08-20T23:07:50.462Z,75.40
2017-08-20T23:08:23.044Z,75.40
2017-08-20T23:08:55.567Z,75.30
2017-08-20T23:09:28.082Z,75.50
2017-08-20T23:10:00.604Z,75.60
2017-08-20T23:10:33.924Z,76.00
2017-08-20T23:11:06.465Z,76.00
2017-08-20T23:11:38.975Z,75.80
2017-08-20T23:12:11.499Z,75.80
2017-08-20T23:12:44.788Z,75.50
2017-08-20T23:13:17.338Z,75.50
2017-08-20T23:13:49.866Z,76.00
2017-08-20T23:14:22.413Z,76.30
2017-08-20T23:14:54.939Z,75.70
2017-08-20T23:15:28.219Z,75.90
2017-08-20T23:16:06.529Z,75.90
2017-08-20T23:16:40.108Z,76.00
2017-08-20T23:17:12.653Z,76.60
2017-08-20T23:17:45.195Z,76.70
2017-08-20T23:18:17.711Z,76.40
2017-08-20T23:18:50.243Z,76.60
2017-08-20T23:31:00.396Z,75.80
2017-08-20T23:31:32.907Z,76.10
2017-08-20T23:32:06.907Z,76.20
2017-08-20T23:32:39.409Z,75.90
2017-08-20T23:33:12.046Z,76.10
2017-08-20T23:33:45.340Z,75.80
2017-08-20T23:34:17.858Z,75.80
2017-08-20T23:34:50.367Z,75.90
2017-08-20T23:35:22.917Z,76.20
2017-08-20T23:35:55.431Z,76.00
2017-08-20T23:36:27.953Z,76.60
2017-08-20T23:37:00.478Z,76.50
2017-08-20T23:37:33.773Z,76.70
2017-08-20T23:38:06.307Z,76.60
2017-08-20T23:38:38.825Z,76.70
2017-08-20T23:39:11.341Z,76.10
2017-08-20T23:39:43.922Z,75.90
2017-08-20T23:40:16.440Z,75.70
2017-08-20T23:40:48.940Z,75.80
2017-08-20T23:41:21.474Z,75.90
2017-08-20T23:41:53.995Z,75.80
2017-08-20T23:42:27.283Z,76.40
2017-08-20T23:42:59.811Z,76.40
2017-08-20T23:43:32.336Z,76.50
2017-08-20T23:44:04.842Z,76.40
2017-08-20T23:44:37.401Z,76.90
2017-08-20T23:45:09.927Z,77.20
2017-08-20T23:45:42.457Z,76.90
2017-08-20T23:46:14.976Z,76.20
2017-08-20T23:46:47.515Z,76.60
2017-08-20T23:47:20.825Z,76.40
2017-08-20T23:47:53.350Z,76.40
2017-08-20T23:48:25.877Z,76.10
2017-08-20T23:48:58.399Z,76.20
2017-08-20T23:49:31.696Z,77.20
2017-08-20T23:50:04.240Z,77.20
2017-08-20T23:50:36.765Z,76.90
2017-08-20T23:51:10.064Z,76.40
2017-08-20T23:51:42.595Z,76.30
2017-08-20T23:52:15.131Z,76.20
2017-08-20T23:52:47.686Z,76.10
2017-08-20T23:53:20.208Z,75.90
2017-08-20T23:53:53.507Z,76.20
2017-08-20T23:54:26.035Z,76.10
2017-08-20T23:54:58.554Z,76.10
2017-08-20T23:55:31.840Z,75.90
2017-08-20T23:56:04.370Z,75.80
2017-08-20T23:56:36.894Z,75.80
2017-08-20T23:57:09.401Z,76.60
2017-08-20T23:57:41.921Z,76.50
2017-08-20T23:58:14.451Z,76.50
2017-08-20T23:58:46.988Z,76.60
2017-08-20T23:59:19.583Z,77.10
2017-08-20T23:59:52.109Z,76.90
